Newtown, North Dakota
Current Conditions -  °F | °C
As of 1:55 AM on Thursday 29 Jan 2015 (Local Time) from K08D Reporting Station
Overcast Overcast  
Wind Chill: 11°   Ceiling: 900
Heat Index: 23°   Visibility: 10mi
Dew Point: 23°   Wind: 14mph
Humidity: 100%   Direction: 340°NNW
Pressure: 30.32"   Gusts: 24mph
Location:  47.9603°N, 102.491°W
Report Text: K08D 290755Z AUTO 34012G21KT 10SM OVC009 M05/M05 A3032 RMK AO2
Loading
Personal Weather Stations






























Interactive Weather Map New forecast layout! Learn more

10-Day Weather Forecast

Advertisements
Track Severe Weather on mobile